Time;durP1;ratioP1;P1;durP2;ratioP2;P2;SDS_P1;SDS_P2;PMS_P1;PMS_P2;Temp;Humidity;BMP_temperature;BMP_pressure;BME280_temperature;BME280_humidity;BME280_pressure;Samples;Min_cycle;Max_cycle;Signal;HPM_P1;HPM_P2
2021/01/01 00:00:47;;;;;;;0.57;0.57;;;4.50;99.90;;;;;;4161991;28;20137;-84
2021/01/01 00:02:52;;;;;;;0.47;0.43;;;4.40;99.90;;;;;;4144050;28;20061;-85
2021/01/01 00:04:53;;;;;;;0.20;0.20;;;4.40;99.90;;;;;;4147610;28;20548;-84
2021/01/01 00:06:56;;;;;;;0.82;0.82;;;4.40;99.90;;;;;;4148046;28;20042;-85
2021/01/01 00:08:58;;;;;;;0.17;0.17;;;4.40;99.90;;;;;;4148536;28;20438;-85
2021/01/01 00:10:59;;;;;;;0.10;0.10;;;4.40;99.90;;;;;;4146471;28;20473;-85
2021/01/01 00:13:00;;;;;;;0.50;0.35;;;4.40;99.90;;;;;;4137557;28;20132;-85
2021/01/01 00:15:04;;;;;;;0.65;0.52;;;4.40;99.90;;;;;;4148610;28;20133;-85
2021/01/01 00:17:05;;;;;;;0.17;0.17;;;4.40;99.90;;;;;;4131285;28;20048;-85
2021/01/01 00:19:07;;;;;;;0.20;0.20;;;4.40;99.90;;;;;;4132380;28;20097;-85
2021/01/01 00:21:09;;;;;;;0.70;0.70;;;4.40;99.90;;;;;;4147965;28;20149;-85
2021/01/01 00:23:11;;;;;;;0.32;0.32;;;4.40;99.90;;;;;;4167113;28;20053;-85
2021/01/01 00:25:12;;;;;;;0.10;0.10;;;4.40;99.90;;;;;;4138355;28;20528;-85
2021/01/01 00:27:14;;;;;;;0.63;0.63;;;4.40;99.90;;;;;;4132007;28;20061;-85
2021/01/01 00:29:15;;;;;;;0.40;0.40;;;4.40;99.90;;;;;;4147424;28;20113;-85
2021/01/01 00:31:21;;;;;;;0.63;0.63;;;4.40;99.90;;;;;;4155775;28;20413;-86
2021/01/01 00:33:22;;;;;;;1.45;0.73;;;4.40;99.90;;;;;;4164320;28;20054;-86
2021/01/01 00:35:23;;;;;;;0.25;0.20;;;4.30;99.90;;;;;;4131393;28;20477;-85
2021/01/01 00:37:25;;;;;;;0.80;0.80;;;4.30;99.90;;;;;;4123972;28;20082;-85
2021/01/01 00:39:26;;;;;;;0.50;0.50;;;4.30;99.90;;;;;;4131372;28;20051;-86
2021/01/01 00:41:33;;;;;;;0.73;0.73;;;4.40;99.90;;;;;;4156062;28;20052;-85
2021/01/01 00:43:35;;;;;;;0.85;0.85;;;4.40;99.90;;;;;;4155594;28;20580;-85
2021/01/01 00:45:36;;;;;;;1.77;0.73;;;4.40;99.90;;;;;;4154938;28;20113;-85
2021/01/01 00:47:37;;;;;;;0.57;0.57;;;4.40;99.90;;;;;;4148040;28;20060;-85
2021/01/01 00:49:39;;;;;;;0.20;0.20;;;4.40;99.90;;;;;;4125141;28;20133;-85
2021/01/01 00:51:40;;;;;;;2.65;0.63;;;4.40;99.90;;;;;;4131869;28;20050;-85
2021/01/01 00:53:41;;;;;;;1.85;1.02;;;4.40;99.90;;;;;;4154465;28;20054;-85
2021/01/01 00:55:42;;;;;;;1.50;0.85;;;4.40;99.90;;;;;;4159990;28;20053;-86
2021/01/01 00:57:44;;;;;;;0.40;0.40;;;4.40;99.90;;;;;;4150738;28;20056;-87
2021/01/01 00:59:45;;;;;;;0.30;0.10;;;4.40;99.90;;;;;;4147554;28;20050;-87
2021/01/01 01:01:47;;;;;;;0.77;0.77;;;4.40;99.90;;;;;;4124249;28;20069;-86
2021/01/01 01:03:51;;;;;;;0.50;0.50;;;4.40;99.90;;;;;;4150825;28;20075;-86
2021/01/01 01:05:53;;;;;;;0.13;0.13;;;4.40;99.90;;;;;;4159206;28;20053;-86
2021/01/01 01:07:55;;;;;;;0.30;0.30;;;4.40;99.90;;;;;;4160470;28;20053;-85
2021/01/01 01:09:56;;;;;;;0.28;0.20;;;4.40;99.90;;;;;;4122877;28;20061;-89
2021/01/01 01:11:57;;;;;;;0.10;0.10;;;4.40;99.90;;;;;;4148041;28;20053;-86
2021/01/01 01:13:59;;;;;;;0.57;0.57;;;4.40;99.90;;;;;;4130661;28;20052;-85
2021/01/01 01:16:00;;;;;;;0.32;0.32;;;4.40;99.90;;;;;;4129322;28;20085;-85
2021/01/01 01:18:01;;;;;;;0.13;0.13;;;4.40;99.90;;;;;;4131604;28;20410;-86
2021/01/01 01:20:03;;;;;;;0.17;0.17;;;4.40;99.90;;;;;;4127919;28;20081;-87
2021/01/01 01:22:04;;;;;;;1.17;0.43;;;4.40;99.90;;;;;;4143042;28;20062;-87
2021/01/01 01:24:06;;;;;;;0.10;0.10;;;4.40;99.90;;;;;;4147384;28;20058;-85
2021/01/01 01:26:08;;;;;;;0.20;0.20;;;4.30;99.90;;;;;;4161276;28;20053;-86
2021/01/01 01:28:09;;;;;;;0.20;0.20;;;4.20;99.90;;;;;;4146236;28;20481;-85
2021/01/01 01:30:11;;;;;;;0.10;0.10;;;4.20;99.90;;;;;;4147704;28;20141;-85
2021/01/01 01:32:12;;;;;;;1.02;0.15;;;4.30;99.90;;;;;;4144470;28;20054;-86
2021/01/01 01:34:13;;;;;;;0.20;0.20;;;4.20;99.90;;;;;;4155264;28;20056;-86
2021/01/01 01:36:14;;;;;;;0.47;0.30;;;4.20;99.90;;;;;;4151160;28;20189;-85
2021/01/01 01:38:16;;;;;;;0.10;0.10;;;4.20;99.90;;;;;;4130710;28;20073;-88
2021/01/01 01:40:17;;;;;;;0.10;0.10;;;4.20;99.90;;;;;;4146878;28;20518;-85
2021/01/01 01:42:18;;;;;;;0.20;0.20;;;4.20;99.90;;;;;;4147074;28;20080;-86
2021/01/01 01:44:20;;;;;;;1.13;0.93;;;4.20;99.90;;;;;;4173473;28;20055;-85
2021/01/01 01:46:22;;;;;;;0.15;0.15;;;4.20;99.90;;;;;;4130448;28;20054;-85
2021/01/01 01:48:26;;;;;;;0.20;0.20;;;4.20;99.90;;;;;;4146148;28;20145;-86
2021/01/01 01:50:28;;;;;;;0.10;0.10;;;4.10;99.90;;;;;;4147652;28;20445;-86
2021/01/01 01:52:30;;;;;;;0.10;0.10;;;4.20;99.90;;;;;;4128509;28;20072;-86
2021/01/01 01:54:32;;;;;;;0.30;0.30;;;4.10;99.90;;;;;;4131032;28;20162;-85
2021/01/01 01:56:33;;;;;;;0.10;0.10;;;4.10;99.90;;;;;;4154211;28;20434;-86
2021/01/01 01:58:35;;;;;;;0.10;0.10;;;4.10;99.90;;;;;;4154910;28;20067;-85
2021/01/01 02:02:39;;;;;;;0.20;0.20;;;4.10;99.90;;;;;;4163445;28;20061;-85
2021/01/01 02:04:40;;;;;;;0.47;0.47;;;4.10;99.90;;;;;;4130080;28;20514;-85
2021/01/01 02:06:43;;;;;;;0.22;0.22;;;4.10;99.90;;;;;;4146517;28;20065;-85
2021/01/01 02:08:45;;;;;;;0.20;0.20;;;4.10;99.90;;;;;;4131000;28;20141;-87
2021/01/01 02:10:47;;;;;;;0.10;0.10;;;4.10;99.90;;;;;;4132797;28;20133;-86
2021/01/01 02:12:48;;;;;;;0.20;0.20;;;4.20;99.90;;;;;;4177482;28;20068;-86
2021/01/01 02:14:50;;;;;;;0.30;0.30;;;4.20;99.90;;;;;;4130507;28;20062;-86
2021/01/01 02:16:51;;;;;;;0.17;0.10;;;4.20;99.90;;;;;;4153935;28;20050;-86
2021/01/01 02:18:53;;;;;;;0.10;0.10;;;4.20;99.90;;;;;;4166160;28;20049;-85
2021/01/01 02:20:54;;;;;;;0.20;0.20;;;4.10;99.90;;;;;;4170043;28;20565;-86
2021/01/01 02:22:55;;;;;;;0.40;0.40;;;4.20;99.90;;;;;;4145894;28;20083;-86
2021/01/01 02:24:57;;;;;;;0.20;0.20;;;4.20;99.90;;;;;;4180257;28;20131;-86
2021/01/01 02:26:58;;;;;;;0.30;0.30;;;4.20;99.90;;;;;;4183469;28;20479;-86
2021/01/01 02:29:04;;;;;;;0.25;0.25;;;4.20;99.90;;;;;;4147890;28;20050;-86
2021/01/01 02:31:05;;;;;;;0.25;0.25;;;4.20;99.90;;;;;;4149699;28;20518;-86
2021/01/01 02:33:07;;;;;;;0.30;0.28;;;4.20;99.90;;;;;;4166459;28;20060;-86
2021/01/01 02:35:08;;;;;;;0.20;0.20;;;4.10;99.90;;;;;;4172993;28;20050;-86
2021/01/01 02:37:10;;;;;;;0.13;0.13;;;4.20;99.90;;;;;;4138340;28;20509;-86
2021/01/01 02:39:11;;;;;;;0.10;0.10;;;4.20;99.90;;;;;;4166370;28;20045;-88
2021/01/01 02:41:12;;;;;;;0.20;0.20;;;4.20;99.90;;;;;;4149007;28;20053;-86
2021/01/01 02:43:14;;;;;;;0.20;0.20;;;4.20;99.90;;;;;;4179407;28;20228;-86
2021/01/01 02:45:15;;;;;;;0.28;0.28;;;4.30;99.90;;;;;;4149992;28;20057;-86
2021/01/01 02:47:16;;;;;;;0.73;0.55;;;4.20;99.90;;;;;;4149892;28;20133;-86
2021/01/01 02:49:18;;;;;;;0.30;0.30;;;4.20;99.90;;;;;;4149593;28;20046;-86
2021/01/01 02:51:19;;;;;;;0.32;0.32;;;4.20;99.90;;;;;;4166351;28;20132;-88
2021/01/01 02:53:20;;;;;;;1.20;0.55;;;4.30;99.90;;;;;;4149239;28;20565;-85
2021/01/01 02:55:21;;;;;;;0.20;0.20;;;4.20;99.90;;;;;;4171138;28;20049;-85
2021/01/01 02:57:23;;;;;;;0.20;0.20;;;4.20;99.90;;;;;;4166214;28;20053;-86
2021/01/01 02:59:24;;;;;;;0.10;0.10;;;4.10;99.90;;;;;;4173525;28;20058;-87
2021/01/01 03:01:25;;;;;;;0.10;0.10;;;4.10;99.90;;;;;;4173721;28;20564;-86
2021/01/01 03:03:26;;;;;;;0.38;0.20;;;4.10;99.90;;;;;;4149805;28;20081;-86
2021/01/01 03:05:28;;;;;;;0.70;0.70;;;4.10;99.90;;;;;;4149104;28;20081;-85
2021/01/01 03:07:29;;;;;;;1.00;0.63;;;4.10;99.90;;;;;;4148749;28;20052;-86
2021/01/01 03:09:30;;;;;;;0.25;0.20;;;4.00;99.90;;;;;;4148520;28;20062;-86
2021/01/01 03:11:32;;;;;;;0.32;0.30;;;4.10;99.90;;;;;;4187264;28;20049;-86
2021/01/01 03:13:33;;;;;;;0.20;0.20;;;4.00;99.90;;;;;;4156222;28;20057;-90
2021/01/01 03:15:34;;;;;;;0.47;0.47;;;4.00;99.90;;;;;;4181979;28;20061;-86
2021/01/01 03:17:35;;;;;;;0.28;0.25;;;4.00;99.90;;;;;;4145089;28;20041;-85
2021/01/01 03:19:37;;;;;;;0.30;0.30;;;4.00;99.90;;;;;;4170581;28;20057;-85
2021/01/01 03:21:39;;;;;;;0.10;0.10;;;4.00;99.90;;;;;;4198946;28;20056;-85
2021/01/01 03:23:40;;;;;;;0.20;0.10;;;3.90;99.90;;;;;;4149341;28;20061;-86
2021/01/01 03:25:41;;;;;;;0.20;0.20;;;3.90;99.90;;;;;;4175874;28;20059;-85
2021/01/01 03:27:42;;;;;;;0.50;0.50;;;3.90;99.90;;;;;;4183244;28;20049;-85
2021/01/01 03:29:44;;;;;;;0.20;0.20;;;3.90;99.90;;;;;;4164844;28;20604;-85
2021/01/01 03:31:45;;;;;;;0.60;0.60;;;4.00;99.90;;;;;;4187029;28;20047;-87
2021/01/01 03:33:46;;;;;;;0.60;0.47;;;3.90;99.90;;;;;;4148257;28;20088;-86
2021/01/01 03:35:48;;;;;;;0.40;0.40;;;3.90;99.90;;;;;;4183485;28;20053;-86
2021/01/01 03:37:49;;;;;;;0.43;0.40;;;4.00;99.90;;;;;;4159893;28;20056;-86
2021/01/01 03:39:51;;;;;;;1.80;0.20;;;3.90;99.90;;;;;;4163706;28;20049;-85
2021/01/01 03:41:52;;;;;;;0.20;0.20;;;3.90;99.90;;;;;;4182223;28;20068;-86
2021/01/01 03:43:53;;;;;;;0.60;0.45;;;3.90;99.90;;;;;;4173920;28;20052;-86
2021/01/01 03:45:54;;;;;;;0.50;0.50;;;3.90;99.90;;;;;;4148699;28;20399;-86
2021/01/01 03:47:56;;;;;;;0.20;0.20;;;3.90;99.90;;;;;;4169156;28;20046;-86
2021/01/01 03:49:58;;;;;;;0.35;0.35;;;3.90;99.90;;;;;;4159718;28;20053;-86
2021/01/01 03:52:01;;;;;;;1.02;0.77;;;3.90;99.90;;;;;;4181241;28;20056;-85
2021/01/01 03:54:02;;;;;;;0.30;0.30;;;3.90;99.90;;;;;;4146260;28;20054;-85
2021/01/01 03:56:04;;;;;;;0.93;0.93;;;3.90;99.90;;;;;;4148262;28;20050;-85
2021/01/01 03:58:06;;;;;;;1.55;1.00;;;3.80;99.90;;;;;;4168017;28;20052;-86
2021/01/01 04:00:08;;;;;;;0.20;0.20;;;3.70;99.90;;;;;;4162890;28;20049;-86
2021/01/01 04:02:09;;;;;;;0.70;0.40;;;3.70;99.90;;;;;;4146707;28;20513;-86
2021/01/01 04:04:11;;;;;;;0.63;0.52;;;3.70;99.90;;;;;;4164009;28;20093;-86
2021/01/01 04:06:12;;;;;;;1.40;0.73;;;3.70;99.90;;;;;;4148593;28;20124;-86
2021/01/01 04:08:13;;;;;;;0.85;0.85;;;3.70;99.90;;;;;;4146797;28;20585;-85
2021/01/01 04:10:14;;;;;;;0.32;0.30;;;3.60;99.90;;;;;;4155394;28;20517;-86
2021/01/01 04:12:16;;;;;;;0.20;0.20;;;3.60;99.90;;;;;;4165056;28;20123;-86
2021/01/01 04:14:17;;;;;;;2.08;0.90;;;3.60;99.90;;;;;;4169268;28;20049;-87
2021/01/01 04:16:18;;;;;;;1.02;0.40;;;3.60;99.90;;;;;;4148189;28;20049;-86
2021/01/01 04:18:19;;;;;;;0.47;0.47;;;3.50;99.90;;;;;;4164985;28;20121;-85
2021/01/01 04:20:21;;;;;;;0.63;0.22;;;3.40;99.90;;;;;;4172897;28;20136;-85
2021/01/01 04:22:22;;;;;;;3.25;1.08;;;3.40;99.90;;;;;;4151693;28;20131;-86
2021/01/01 04:24:23;;;;;;;0.60;0.57;;;3.40;99.90;;;;;;4164556;28;20136;-85
2021/01/01 04:26:25;;;;;;;0.50;0.50;;;3.30;99.90;;;;;;4158512;28;20526;-85
2021/01/01 04:28:26;;;;;;;0.52;0.20;;;3.30;99.90;;;;;;4130973;28;20058;-86
2021/01/01 04:30:27;;;;;;;0.40;0.40;;;3.40;99.90;;;;;;4148398;28;20060;-85
2021/01/01 04:32:28;;;;;;;0.75;0.63;;;3.30;99.90;;;;;;4147207;28;20081;-87
2021/01/01 04:34:30;;;;;;;0.40;0.40;;;3.30;99.90;;;;;;4124094;28;20042;-85
2021/01/01 04:36:31;;;;;;;2.70;1.25;;;3.30;99.90;;;;;;4133108;28;20054;-85
2021/01/01 04:38:32;;;;;;;0.45;0.45;;;3.40;99.90;;;;;;4140782;28;20052;-85
2021/01/01 04:40:34;;;;;;;0.40;0.40;;;3.40;99.90;;;;;;4131461;28;20050;-86
2021/01/01 04:42:36;;;;;;;0.40;0.30;;;3.40;99.90;;;;;;4150716;28;20075;-85
2021/01/01 04:44:37;;;;;;;0.30;0.30;;;3.40;99.90;;;;;;4162849;28;20049;-85
2021/01/01 04:46:38;;;;;;;1.40;1.25;;;3.30;99.90;;;;;;4166732;28;20046;-85
2021/01/01 04:48:39;;;;;;;0.95;0.80;;;3.30;99.90;;;;;;4117209;28;20054;-85
2021/01/01 04:50:41;;;;;;;0.25;0.25;;;3.30;99.90;;;;;;4164903;28;20096;-85
2021/01/01 04:52:42;;;;;;;0.65;0.65;;;3.20;99.90;;;;;;4144875;28;20053;-85
2021/01/01 04:54:44;;;;;;;0.47;0.30;;;3.30;99.90;;;;;;4131245;28;20056;-85
2021/01/01 04:56:46;;;;;;;0.55;0.55;;;3.20;99.90;;;;;;4163390;28;20441;-85
2021/01/01 04:58:48;;;;;;;0.50;0.50;;;3.20;99.90;;;;;;4131068;28;20138;-87
2021/01/01 05:00:49;;;;;;;0.82;0.80;;;3.20;99.90;;;;;;4146365;28;20050;-86
2021/01/01 05:02:51;;;;;;;0.15;0.15;;;3.10;99.90;;;;;;4164220;28;20439;-86
2021/01/01 05:04:57;;;;;;;0.52;0.47;;;3.10;99.90;;;;;;4145900;28;20133;-85
2021/01/01 05:06:58;;;;;;;0.28;0.20;;;3.10;99.90;;;;;;4132147;28;20050;-86
2021/01/01 05:09:00;;;;;;;0.30;0.30;;;3.10;99.90;;;;;;4147494;28;20144;-86
2021/01/01 05:11:06;;;;;;;0.20;0.20;;;3.10;99.90;;;;;;4148792;28;20050;-85
2021/01/01 05:13:12;;;;;;;2.83;1.30;;;3.20;99.90;;;;;;4131451;28;20052;-85
2021/01/01 05:15:13;;;;;;;0.68;0.68;;;3.10;99.90;;;;;;4147690;28;20446;-85
2021/01/01 05:17:14;;;;;;;0.90;0.57;;;3.10;99.90;;;;;;4130032;28;20050;-86
2021/01/01 05:19:16;;;;;;;0.57;0.50;;;3.10;99.90;;;;;;4130487;28;20054;-87
2021/01/01 05:21:26;;;;;;;3.50;0.80;;;3.10;99.90;;;;;;4147740;28;20058;-85
2021/01/01 05:23:28;;;;;;;0.45;0.40;;;3.10;99.90;;;;;;4146462;28;20049;-85
2021/01/01 05:25:29;;;;;;;0.20;0.20;;;3.10;99.90;;;;;;4129907;28;20145;-86
2021/01/01 05:27:33;;;;;;;1.02;0.85;;;3.00;99.90;;;;;;4149239;28;20050;-85
2021/01/01 05:29:34;;;;;;;0.82;0.82;;;3.00;99.90;;;;;;4163958;28;20053;-85
2021/01/01 05:31:39;;;;;;;0.40;0.40;;;3.00;99.90;;;;;;4130766;28;20141;-85
2021/01/01 05:33:42;;;;;;;1.40;1.30;;;3.00;99.90;;;;;;4131092;28;20062;-85
2021/01/01 05:35:43;;;;;;;0.15;0.15;;;2.90;99.90;;;;;;4128492;28;20046;-85
2021/01/01 05:37:44;;;;;;;1.38;0.70;;;2.90;99.90;;;;;;4143370;28;20060;-86
2021/01/01 05:39:46;;;;;;;0.28;0.28;;;2.80;99.90;;;;;;4145643;28;20046;-85
2021/01/01 05:41:48;;;;;;;1.55;1.30;;;2.80;99.90;;;;;;4163280;28;20436;-85
2021/01/01 05:43:49;;;;;;;1.08;0.73;;;2.80;99.90;;;;;;4155677;28;20092;-85
2021/01/01 05:45:51;;;;;;;0.80;0.80;;;2.80;99.90;;;;;;4130647;28;20050;-85
2021/01/01 05:48:07;;;;;;;0.47;0.47;;;2.70;99.90;;;;;;4126829;28;20058;-85
2021/01/01 05:50:09;;;;;;;0.22;0.22;;;2.70;99.90;;;;;;4129973;28;20567;-85
2021/01/01 05:52:21;;;;;;;0.70;0.70;;;2.70;99.90;;;;;;4147232;28;20046;-86
2021/01/01 05:54:22;;;;;;;0.57;0.55;;;2.60;99.90;;;;;;4147711;28;20054;-85
2021/01/01 05:56:24;;;;;;;1.35;1.25;;;2.60;99.90;;;;;;4148051;28;20050;-86
2021/01/01 05:58:25;;;;;;;0.43;0.43;;;2.60;99.90;;;;;;4132399;28;20146;-87
2021/01/01 06:00:27;;;;;;;1.10;0.57;;;2.60;99.90;;;;;;4133006;28;20438;-85
2021/01/01 06:02:28;;;;;;;0.30;0.30;;;2.60;99.90;;;;;;4161108;28;20132;-86
2021/01/01 06:04:29;;;;;;;1.27;0.50;;;2.60;99.90;;;;;;4142793;28;20489;-86
2021/01/01 06:06:34;;;;;;;2.35;0.77;;;2.60;99.90;;;;;;4131312;28;20064;-86
2021/01/01 06:08:35;;;;;;;0.55;0.40;;;2.60;99.90;;;;;;4130961;28;20058;-87
2021/01/01 06:10:42;;;;;;;;;;;2.60;99.90;;;;;;4170878;28;20049;-88
2021/01/01 06:12:43;;;;;;;2.35;1.65;;;2.60;99.90;;;;;;4178338;28;19920;-88
2021/01/01 06:14:45;;;;;;;1.40;0.90;;;2.60;99.90;;;;;;4130653;28;20046;-87
2021/01/01 06:16:47;;;;;;;2.67;0.82;;;2.60;99.90;;;;;;4130226;28;20415;-89
2021/01/01 06:18:48;;;;;;;1.92;1.83;;;2.60;99.90;;;;;;4145702;28;20051;-88
2021/01/01 06:20:57;;;;;;;2.13;1.27;;;2.60;99.90;;;;;;4133557;28;20072;-86
2021/01/01 06:23:00;;;;;;;0.43;0.43;;;2.60;99.90;;;;;;4144904;28;20060;-87
2021/01/01 06:25:03;;;;;;;1.33;1.00;;;2.60;99.90;;;;;;4166007;28;20124;-88
2021/01/01 06:27:05;;;;;;;0.82;0.52;;;2.60;99.90;;;;;;4163413;28;20489;-86
2021/01/01 06:29:06;;;;;;;2.05;1.20;;;2.60;99.90;;;;;;4161801;28;20084;-88
2021/01/01 06:31:07;;;;;;;1.08;0.88;;;2.60;99.90;;;;;;4162502;28;20042;-87
2021/01/01 06:33:08;;;;;;;1.05;0.82;;;2.60;99.90;;;;;;4160495;28;20230;-89
2021/01/01 06:35:17;;;;;;;0.40;0.40;;;2.60;99.90;;;;;;4162137;28;20529;-88
2021/01/01 06:37:54;;;;;;;0.73;0.60;;;2.70;99.90;;;;;;4152588;28;20071;-89
2021/01/01 06:39:55;;;;;;;0.98;0.98;;;2.70;99.90;;;;;;4128067;28;20047;-88
2021/01/01 06:41:56;;;;;;;0.75;0.75;;;2.70;99.90;;;;;;4112024;28;20065;-88
2021/01/01 06:43:57;;;;;;;0.30;0.30;;;2.70;99.90;;;;;;4110945;28;20142;-88
2021/01/01 06:45:59;;;;;;;1.25;1.15;;;2.80;99.90;;;;;;4123736;28;20051;-88
2021/01/01 06:48:00;;;;;;;2.75;0.63;;;2.80;99.90;;;;;;4126128;28;20046;-88
2021/01/01 06:50:02;;;;;;;0.65;0.65;;;2.80;99.90;;;;;;4129412;28;20504;-88
2021/01/01 06:52:13;;;;;;;1.17;0.70;;;2.80;99.90;;;;;;4113761;28;20075;-88
2021/01/01 06:54:14;;;;;;;1.83;0.95;;;2.80;99.90;;;;;;4114089;28;20431;-88
2021/01/01 06:56:18;;;;;;;0.65;0.50;;;2.80;99.90;;;;;;4111405;28;20525;-88
2021/01/01 06:58:25;;;;;;;0.93;0.43;;;2.80;99.90;;;;;;4096941;28;20054;-87
2021/01/01 07:00:45;;;;;;;1.60;1.50;;;2.80;99.90;;;;;;4128885;28;20046;-88
2021/01/01 07:02:48;;;;;;;0.88;0.88;;;2.80;99.90;;;;;;4131786;28;20085;-87
2021/01/01 07:04:50;;;;;;;0.98;0.52;;;2.80;99.90;;;;;;4116038;28;20043;-87
2021/01/01 07:06:51;;;;;;;2.17;0.80;;;2.80;99.90;;;;;;4100756;29;20047;-87
2021/01/01 07:08:52;;;;;;;2.53;0.65;;;2.80;99.90;;;;;;4114003;28;20046;-89
2021/01/01 07:10:54;;;;;;;0.77;0.77;;;2.80;99.90;;;;;;4122150;28;20063;-89
2021/01/01 07:13:17;;;;;;;1.10;0.30;;;2.80;99.90;;;;;;4114328;28;20056;-91
2021/01/01 07:15:33;;;;;;;0.73;0.73;;;2.80;99.90;;;;;;4164788;28;20064;-90
2021/01/01 07:17:49;;;;;;;1.42;0.60;;;2.80;99.90;;;;;;4196454;28;20063;-89
2021/01/01 07:19:51;;;;;;;0.68;0.57;;;2.80;99.90;;;;;;4148000;28;20050;-87
2021/01/01 07:21:52;;;;;;;0.90;0.82;;;2.80;99.90;;;;;;4153933;28;20050;-91
2021/01/01 07:24:01;;;;;;;0.77;0.75;;;2.80;99.90;;;;;;4132005;28;20065;-90
2021/01/01 07:26:03;;;;;;;1.73;1.13;;;2.90;99.90;;;;;;4141528;28;20050;-88
2021/01/01 07:28:10;;;;;;;1.45;0.68;;;2.80;99.90;;;;;;4134420;28;20153;-91
2021/01/01 07:30:12;;;;;;;1.55;0.68;;;2.80;99.90;;;;;;4149315;28;20072;-92
2021/01/01 07:32:17;;;;;;;1.48;1.25;;;2.80;99.90;;;;;;4174313;28;20051;-90
2021/01/01 07:34:18;;;;;;;0.10;0.10;;;2.90;99.90;;;;;;4156956;28;20050;-91
2021/01/01 07:36:20;;;;;;;2.90;1.25;;;2.90;99.90;;;;;;4133595;28;20050;-89
2021/01/01 07:38:22;;;;;;;1.50;1.40;;;2.90;99.90;;;;;;4147856;28;20506;-90
2021/01/01 07:40:23;;;;;;;2.60;0.73;;;2.90;99.90;;;;;;4179445;28;20504;-90
2021/01/01 07:42:24;;;;;;;0.75;0.65;;;2.90;99.90;;;;;;4174373;28;20095;-88
2021/01/01 07:44:26;;;;;;;3.92;2.17;;;2.90;99.90;;;;;;4163294;28;20064;-89
2021/01/01 07:46:29;;;;;;;1.58;1.35;;;2.80;99.90;;;;;;4130609;28;20048;-88
2021/01/01 07:48:30;;;;;;;1.27;0.95;;;2.90;99.90;;;;;;4147898;28;20118;-86
2021/01/01 07:50:32;;;;;;;1.17;0.93;;;2.80;99.90;;;;;;4130402;28;20054;-86
2021/01/01 07:52:33;;;;;;;1.13;0.60;;;2.80;99.90;;;;;;4129511;28;20414;-86
2021/01/01 07:54:48;;;;;;;1.63;1.52;;;2.80;99.90;;;;;;4166658;28;20072;-86
2021/01/01 07:56:49;;;;;;;1.00;0.98;;;2.80;99.90;;;;;;4162140;28;20045;-87
2021/01/01 07:58:50;;;;;;;0.68;0.68;;;2.80;99.90;;;;;;4170467;28;20049;-87
2021/01/01 08:00:52;;;;;;;0.98;0.57;;;2.80;99.90;;;;;;4144794;28;20050;-86
2021/01/01 08:02:54;;;;;;;0.80;0.55;;;2.80;99.90;;;;;;4130160;28;20467;-87
2021/01/01 08:04:55;;;;;;;1.10;0.65;;;2.80;99.90;;;;;;4130418;28;20042;-88
2021/01/01 08:06:56;;;;;;;1.65;0.57;;;2.80;99.90;;;;;;4132156;28;20062;-87
2021/01/01 08:09:04;;;;;;;3.35;0.75;;;2.80;99.90;;;;;;4147819;28;20140;-87
2021/01/01 08:11:06;;;;;;;1.65;0.40;;;2.80;99.90;;;;;;4131720;28;20050;-87
2021/01/01 08:13:17;;;;;;;0.68;0.68;;;2.90;99.90;;;;;;4131124;28;20153;-87
2021/01/01 08:15:30;;;;;;;0.73;0.60;;;2.90;99.90;;;;;;4164915;28;20403;-87
2021/01/01 08:17:32;;;;;;;4.03;1.45;;;2.90;99.90;;;;;;4148629;28;20542;-88
2021/01/01 08:19:33;;;;;;;0.80;0.65;;;2.90;99.90;;;;;;4131186;28;20054;-88
2021/01/01 08:21:35;;;;;;;0.95;0.68;;;2.90;99.90;;;;;;4159555;28;20087;-88
2021/01/01 08:23:47;;;;;;;4.00;1.00;;;2.90;99.90;;;;;;4130138;28;20050;-88
2021/01/01 08:25:48;;;;;;;1.08;1.08;;;2.90;99.90;;;;;;4194771;28;20507;-87
2021/01/01 08:27:50;;;;;;;0.52;0.52;;;2.90;99.90;;;;;;4159238;28;20038;-87
2021/01/01 08:29:52;;;;;;;0.47;0.47;;;2.90;99.90;;;;;;4163976;28;20072;-85
2021/01/01 08:31:57;;;;;;;1.75;0.65;;;2.90;99.90;;;;;;4163860;28;20522;-85
2021/01/01 08:33:58;;;;;;;0.73;0.73;;;2.90;99.90;;;;;;4132130;28;20070;-88
2021/01/01 08:36:04;;;;;;;1.52;0.90;;;2.90;99.90;;;;;;4164351;28;20124;-87
2021/01/01 08:38:18;;;;;;;1.40;0.77;;;2.90;99.90;;;;;;4162396;28;20053;-87
2021/01/01 08:40:20;;;;;;;7.03;1.65;;;3.00;99.90;;;;;;4125247;28;20046;-88
2021/01/01 08:42:23;;;;;;;0.35;0.35;;;2.90;99.90;;;;;;4135282;28;20137;-90
2021/01/01 08:44:24;;;;;;;0.63;0.63;;;2.90;99.90;;;;;;4130780;28;20200;-87
2021/01/01 08:46:27;;;;;;;0.60;0.43;;;2.90;99.90;;;;;;4162062;28;20578;-88
2021/01/01 08:48:29;;;;;;;2.00;1.05;;;2.90;99.90;;;;;;4163672;28;20049;-89
2021/01/01 08:50:30;;;;;;;0.40;0.40;;;2.90;99.90;;;;;;4146660;28;20058;-88
2021/01/01 08:52:32;;;;;;;2.42;0.82;;;3.00;99.90;;;;;;4159110;28;20049;-88
2021/01/01 08:54:33;;;;;;;1.13;0.70;;;3.00;99.90;;;;;;4163986;28;20553;-87
2021/01/01 08:56:34;;;;;;;2.72;0.73;;;3.00;99.90;;;;;;4131308;28;20050;-86
2021/01/01 08:58:36;;;;;;;1.05;0.95;;;3.10;99.90;;;;;;4127866;28;20057;-88
2021/01/01 09:01:14;;;;;;;0.63;0.63;;;3.10;99.90;;;;;;4149714;28;20048;-89
2021/01/01 09:03:16;;;;;;;2.15;1.35;;;3.00;99.90;;;;;;4131673;28;20069;-88
2021/01/01 09:05:17;;;;;;;2.20;1.70;;;3.10;99.90;;;;;;4147312;28;20078;-88
2021/01/01 09:07:19;;;;;;;0.30;0.30;;;3.10;99.90;;;;;;4163269;28;20045;-88
2021/01/01 09:09:25;;;;;;;1.63;0.85;;;3.10;99.90;;;;;;4179912;28;20076;-87
2021/01/01 09:11:26;;;;;;;1.35;0.75;;;3.10;99.90;;;;;;4162391;28;20041;-88
2021/01/01 09:13:30;;;;;;;0.43;0.40;;;3.10;99.90;;;;;;4146914;28;20057;-85
2021/01/01 09:15:31;;;;;;;0.30;0.30;;;3.10;99.90;;;;;;4162861;28;20049;-86
2021/01/01 09:17:32;;;;;;;1.45;1.10;;;3.10;99.90;;;;;;4144335;28;20616;-85
2021/01/01 09:19:34;;;;;;;1.85;1.45;;;3.20;99.90;;;;;;4146907;28;20050;-89
2021/01/01 09:21:36;;;;;;;3.17;1.35;;;3.20;99.90;;;;;;4171328;28;20563;-85
2021/01/01 09:23:38;;;;;;;1.55;0.80;;;3.10;99.90;;;;;;4180427;28;20059;-84
2021/01/01 09:25:40;;;;;;;1.95;0.80;;;3.20;99.90;;;;;;4144669;28;20103;-87
2021/01/01 09:27:41;;;;;;;1.85;0.98;;;3.20;99.90;;;;;;4167991;28;20053;-88
2021/01/01 09:29:42;;;;;;;0.20;0.20;;;3.20;99.90;;;;;;4177326;28;20139;-88
2021/01/01 09:31:44;;;;;;;4.70;0.88;;;3.20;99.90;;;;;;4150617;28;20050;-88
2021/01/01 09:34:02;;;;;;;2.25;0.82;;;3.30;99.90;;;;;;4172889;28;20055;-86
2021/01/01 09:36:04;;;;;;;0.80;0.80;;;3.30;99.90;;;;;;4146748;28;20045;-86
2021/01/01 09:38:06;;;;;;;0.65;0.65;;;3.30;99.90;;;;;;4162687;28;20085;-87
2021/01/01 09:40:08;;;;;;;0.30;0.30;;;3.30;99.90;;;;;;4162685;28;20144;-86
2021/01/01 09:42:09;;;;;;;0.40;0.40;;;3.30;99.90;;;;;;4163681;28;20061;-86
2021/01/01 09:44:10;;;;;;;0.45;0.35;;;3.30;99.90;;;;;;4169361;28;20057;-85
2021/01/01 09:46:11;;;;;;;1.27;0.70;;;3.30;99.90;;;;;;4152436;28;20136;-87
2021/01/01 09:48:13;;;;;;;0.93;0.73;;;3.30;99.90;;;;;;4169037;28;20045;-86
2021/01/01 09:50:14;;;;;;;2.42;0.93;;;3.30;99.90;;;;;;4172783;28;20128;-86
2021/01/01 09:52:15;;;;;;;1.10;0.65;;;3.30;99.90;;;;;;4158984;28;20533;-85
2021/01/01 09:54:17;;;;;;;0.85;0.65;;;3.30;99.90;;;;;;4164143;28;20490;-86
2021/01/01 09:56:18;;;;;;;2.33;0.93;;;3.40;99.90;;;;;;4145242;28;20085;-86
2021/01/01 09:58:21;;;;;;;1.30;1.05;;;3.30;99.90;;;;;;4167240;28;20065;-86
2021/01/01 10:00:23;;;;;;;1.10;0.93;;;3.30;99.90;;;;;;4161600;28;20136;-87
2021/01/01 10:02:25;;;;;;;0.65;0.65;;;3.30;99.90;;;;;;4178843;28;20052;-85
2021/01/01 10:04:27;;;;;;;0.40;0.40;;;3.30;99.90;;;;;;4146359;28;20049;-87
2021/01/01 10:06:28;;;;;;;0.47;0.47;;;3.30;99.90;;;;;;4146433;28;20077;-87
2021/01/01 10:08:29;;;;;;;2.53;0.95;;;3.30;99.90;;;;;;4162391;28;20049;-86
2021/01/01 10:10:33;;;;;;;3.60;1.15;;;3.40;99.90;;;;;;4143595;28;20046;-86
2021/01/01 10:12:34;;;;;;;0.50;0.50;;;3.40;99.90;;;;;;4176422;28;20160;-85
2021/01/01 10:14:35;;;;;;;1.60;0.95;;;3.40;99.90;;;;;;4144394;28;20101;-86
2021/01/01 10:16:39;;;;;;;0.68;0.68;;;3.40;99.90;;;;;;4154355;28;20734;-85
2021/01/01 10:18:40;;;;;;;0.75;0.47;;;3.40;99.90;;;;;;4146086;28;20068;-85
2021/01/01 10:20:42;;;;;;;0.45;0.30;;;3.50;99.90;;;;;;4179561;28;20057;-85
2021/01/01 10:22:43;;;;;;;0.47;0.47;;;3.50;99.90;;;;;;4165441;28;20041;-85
2021/01/01 10:24:44;;;;;;;1.83;0.93;;;3.50;99.90;;;;;;4179058;28;20143;-86
2021/01/01 10:26:49;;;;;;;1.38;1.27;;;3.60;99.90;;;;;;4146967;28;20057;-85
2021/01/01 10:28:56;;;;;;;0.45;0.45;;;3.60;99.90;;;;;;4147538;28;20042;-87
2021/01/01 10:30:59;;;;;;;1.35;0.52;;;3.60;99.90;;;;;;4168013;28;20123;-87
2021/01/01 10:33:00;;;;;;;3.78;1.55;;;3.50;99.90;;;;;;4147433;28;20056;-87
2021/01/01 10:35:02;;;;;;;1.55;1.25;;;3.60;99.90;;;;;;4179074;28;20052;-88
2021/01/01 10:37:04;;;;;;;0.50;0.50;;;3.60;99.90;;;;;;4167436;28;20053;-87
2021/01/01 10:39:05;;;;;;;0.65;0.57;;;3.60;99.90;;;;;;4166909;28;20236;-85
2021/01/01 10:41:07;;;;;;;1.70;1.58;;;3.60;99.90;;;;;;4150152;28;20078;-88
2021/01/01 10:43:08;;;;;;;3.17;1.52;;;3.60;99.90;;;;;;4148505;28;20145;-86
2021/01/01 10:45:12;;;;;;;1.05;0.63;;;3.60;99.90;;;;;;4151451;28;20490;-87
2021/01/01 10:47:13;;;;;;;0.70;0.70;;;3.60;99.90;;;;;;4147798;28;20532;-87
2021/01/01 10:49:19;;;;;;;;;;;3.60;99.90;;;;;;4185745;28;20052;-85